createdAt,value
2022-09-30T00:01:20.477Z,2.55
2022-09-30T00:03:37.397Z,2.60
2022-09-30T00:05:54.312Z,2.63
2022-09-30T00:08:11.199Z,2.97
2022-09-30T00:10:28.240Z,3.15
2022-09-30T00:12:45.513Z,3.00
2022-09-30T00:15:02.516Z,2.85
2022-09-30T00:17:19.809Z,3.40
2022-09-30T00:19:36.689Z,3.05
2022-09-30T00:21:53.560Z,3.05
2022-09-30T00:24:10.608Z,2.53
2022-09-30T00:26:27.796Z,2.70
2022-09-30T00:28:44.771Z,2.97
2022-09-30T00:31:02.076Z,2.97
2022-09-30T00:33:20.048Z,3.63
2022-09-30T00:35:37.334Z,2.67
2022-09-30T00:37:54.579Z,2.88
2022-09-30T00:40:11.762Z,3.05
2022-09-30T00:42:29.038Z,2.70
2022-09-30T00:44:46.322Z,2.47
2022-09-30T00:47:03.677Z,2.85
2022-09-30T00:49:20.601Z,2.90
2022-09-30T00:51:37.639Z,3.08
2022-09-30T00:53:55.318Z,3.10
2022-09-30T00:56:12.556Z,3.05
2022-09-30T00:58:31.891Z,2.95
2022-09-30T01:00:49.242Z,2.60
2022-09-30T01:03:06.187Z,2.95
2022-09-30T01:05:23.196Z,2.65
2022-09-30T01:07:41.132Z,2.50
2022-09-30T01:09:58.291Z,2.75
2022-09-30T01:12:15.230Z,2.85
2022-09-30T01:14:32.162Z,2.70
2022-09-30T01:16:49.136Z,2.47
2022-09-30T01:19:07.508Z,3.35
2022-09-30T01:21:24.491Z,2.58
2022-09-30T01:23:42.188Z,2.72
2022-09-30T01:25:59.180Z,2.70
2022-09-30T01:28:16.057Z,2.63
2022-09-30T01:30:33.014Z,2.50
2022-09-30T01:32:50.903Z,2.65
2022-09-30T01:35:07.805Z,2.35
2022-09-30T01:37:24.997Z,2.70
2022-09-30T01:39:42.244Z,3.13
2022-09-30T01:42:02.797Z,2.80
2022-09-30T01:44:19.727Z,2.65
2022-09-30T01:46:36.803Z,2.60
2022-09-30T01:48:54.912Z,2.60
2022-09-30T01:51:13.712Z,2.80
2022-09-30T01:53:32.144Z,2.88
2022-09-30T01:55:50.313Z,2.75
2022-09-30T01:58:07.640Z,2.80
2022-09-30T02:00:25.733Z,2.42
2022-09-30T02:02:43.011Z,2.50
2022-09-30T02:05:01.268Z,2.80
2022-09-30T02:07:21.222Z,2.83
2022-09-30T02:09:38.282Z,2.42
2022-09-30T02:11:55.549Z,2.50
2022-09-30T02:14:12.864Z,2.60
2022-09-30T02:16:30.132Z,2.60
2022-09-30T02:18:47.154Z,2.58
2022-09-30T02:21:04.177Z,2.60
2022-09-30T02:23:21.582Z,2.67
2022-09-30T02:25:39.539Z,2.70
2022-09-30T02:27:56.518Z,2.40
2022-09-30T02:30:13.425Z,2.70
2022-09-30T02:32:30.707Z,2.70
2022-09-30T02:34:47.682Z,2.58
2022-09-30T02:37:04.947Z,3.03
2022-09-30T02:39:23.065Z,2.85
2022-09-30T02:41:40.459Z,2.65
2022-09-30T02:43:58.422Z,2.90
2022-09-30T02:46:15.695Z,2.60
2022-09-30T02:48:32.767Z,2.78
2022-09-30T02:50:49.987Z,2.70
2022-09-30T02:53:07.286Z,2.90
2022-09-30T02:55:25.265Z,2.83
2022-09-30T02:57:43.638Z,2.58
2022-09-30T03:00:03.240Z,2.63
2022-09-30T03:02:20.883Z,2.40
2022-09-30T03:04:39.244Z,2.50
2022-09-30T03:06:56.497Z,2.63
2022-09-30T03:09:13.499Z,2.70
2022-09-30T03:11:30.520Z,2.80
2022-09-30T03:13:48.791Z,2.63
2022-09-30T03:16:05.777Z,2.80
2022-09-30T03:18:23.315Z,2.67
2022-09-30T03:20:40.438Z,3.40
2022-09-30T03:22:57.626Z,2.80
2022-09-30T03:25:15.612Z,2.72
2022-09-30T03:27:32.537Z,2.65
2022-09-30T03:29:49.535Z,2.65
2022-09-30T03:32:09.239Z,2.90
2022-09-30T03:34:26.228Z,3.05
2022-09-30T03:36:45.444Z,2.70
2022-09-30T03:39:02.509Z,3.15
2022-09-30T03:41:19.518Z,2.88
2022-09-30T03:43:37.474Z,2.85
2022-09-30T03:45:54.348Z,3.15
2022-09-30T03:48:12.561Z,2.92
2022-09-30T03:50:30.757Z,2.97
2022-09-30T03:52:48.091Z,3.28
2022-09-30T03:55:08.269Z,3.05
2022-09-30T03:57:25.332Z,2.70
2022-09-30T03:59:42.567Z,2.80
2022-09-30T04:02:00.806Z,2.63
2022-09-30T04:04:21.340Z,2.33
2022-09-30T04:06:38.449Z,3.35
2022-09-30T04:08:55.765Z,2.90
2022-09-30T04:11:13.048Z,3.20
2022-09-30T04:13:30.264Z,2.75
2022-09-30T04:15:47.175Z,2.88
2022-09-30T04:18:04.092Z,2.97
2022-09-30T04:20:21.425Z,2.83
2022-09-30T04:22:38.580Z,3.00
2022-09-30T04:24:56.395Z,2.67
2022-09-30T04:27:14.362Z,2.88
2022-09-30T04:29:31.933Z,2.67
2022-09-30T04:31:49.047Z,2.25
2022-09-30T04:34:06.000Z,2.60
2022-09-30T04:36:24.165Z,2.53
2022-09-30T04:38:41.111Z,2.20
2022-09-30T04:40:59.348Z,2.50
2022-09-30T04:43:16.574Z,2.10
2022-09-30T04:45:33.640Z,2.40
2022-09-30T04:47:50.857Z,2.10
2022-09-30T04:50:08.086Z,2.05
2022-09-30T04:52:25.034Z,2.30
2022-09-30T04:54:42.244Z,2.13
2022-09-30T04:56:59.170Z,2.10
2022-09-30T04:59:16.144Z,2.47
2022-09-30T05:01:33.107Z,2.42
2022-09-30T05:03:51.146Z,2.78
2022-09-30T05:06:08.153Z,2.40
2022-09-30T05:08:25.096Z,2.30
2022-09-30T05:10:42.299Z,2.70
2022-09-30T05:12:59.561Z,2.63
2022-09-30T05:15:16.660Z,2.80
2022-09-30T05:17:34.847Z,2.45
2022-09-30T05:19:51.821Z,2.30
2022-09-30T05:22:09.065Z,2.65
2022-09-30T05:24:26.315Z,2.35
2022-09-30T05:26:44.366Z,2.70
2022-09-30T05:29:01.391Z,3.58
2022-09-30T05:31:18.739Z,7.90
2022-09-30T05:33:35.801Z,5.10
2022-09-30T05:35:52.995Z,10.43
2022-09-30T05:38:11.316Z,5.80
2022-09-30T05:40:28.580Z,3.22
2022-09-30T05:42:46.948Z,3.20
2022-09-30T05:45:04.250Z,3.20
2022-09-30T05:47:21.283Z,2.85
2022-09-30T05:49:38.408Z,2.80
2022-09-30T05:51:55.469Z,2.80
2022-09-30T05:54:12.578Z,2.60
2022-09-30T05:56:29.613Z,2.78
2022-09-30T05:58:46.700Z,3.85
2022-09-30T06:01:10.632Z,3.45
2022-09-30T06:03:30.052Z,3.40
2022-09-30T06:05:46.961Z,3.42
2022-09-30T06:08:04.236Z,3.38
2022-09-30T06:10:21.274Z,3.50
2022-09-30T06:12:38.665Z,2.70
2022-09-30T06:14:55.830Z,3.00
2022-09-30T06:17:12.853Z,3.10
2022-09-30T06:19:29.900Z,4.00
2022-09-30T06:21:47.911Z,3.78
2022-09-30T06:24:05.139Z,4.43
2022-09-30T06:26:24.173Z,4.15
2022-09-30T06:28:41.406Z,3.60
2022-09-30T06:30:58.354Z,3.13
2022-09-30T06:33:15.419Z,4.10
2022-09-30T06:35:32.411Z,4.50
2022-09-30T06:37:49.417Z,3.85
2022-09-30T06:40:07.705Z,3.78
2022-09-30T06:42:24.763Z,8.02
2022-09-30T06:44:50.336Z,3.97
2022-09-30T06:47:21.915Z,3.42
2022-09-30T06:49:48.986Z,4.00
2022-09-30T06:52:06.716Z,3.63
2022-09-30T06:54:23.953Z,3.90
2022-09-30T06:56:40.975Z,3.60
2022-09-30T06:58:58.952Z,3.75
2022-09-30T07:01:16.305Z,4.10
2022-09-30T07:03:33.418Z,3.03
2022-09-30T07:05:50.439Z,3.30
2022-09-30T07:08:07.400Z,3.10
2022-09-30T07:10:25.346Z,3.15
2022-09-30T07:12:42.409Z,3.13
2022-09-30T07:14:59.661Z,4.10
2022-09-30T07:17:16.626Z,4.90
2022-09-30T07:19:33.926Z,4.80
2022-09-30T07:21:50.970Z,4.03
2022-09-30T07:24:07.925Z,4.05
2022-09-30T07:26:25.061Z,3.83
2022-09-30T07:28:42.965Z,3.80
2022-09-30T07:31:20.325Z,4.20
2022-09-30T07:33:37.512Z,3.40
2022-09-30T07:35:54.804Z,3.10
2022-09-30T07:38:12.140Z,2.95
2022-09-30T07:40:29.165Z,3.15
2022-09-30T07:42:47.495Z,3.25
2022-09-30T07:45:04.606Z,3.00
2022-09-30T07:47:21.695Z,2.90
2022-09-30T07:49:38.790Z,3.13
2022-09-30T07:51:56.038Z,2.85
2022-09-30T07:54:14.109Z,2.97
2022-09-30T07:56:41.265Z,2.65
2022-09-30T07:59:08.683Z,2.95
2022-09-30T08:01:25.931Z,2.85
2022-09-30T08:03:42.957Z,3.05
2022-09-30T08:06:00.206Z,2.90
2022-09-30T08:08:17.165Z,3.15
2022-09-30T08:10:34.174Z,2.70
2022-09-30T08:12:54.407Z,2.55
2022-09-30T08:15:13.309Z,2.70
2022-09-30T08:17:30.288Z,3.00
2022-09-30T08:19:47.609Z,2.80
2022-09-30T08:22:04.644Z,2.50
2022-09-30T08:24:22.143Z,2.65
2022-09-30T08:26:39.209Z,2.78
2022-09-30T08:28:56.151Z,2.78
2022-09-30T08:31:13.355Z,2.88
2022-09-30T08:33:30.613Z,2.70
2022-09-30T08:35:47.830Z,2.92
2022-09-30T08:38:05.093Z,2.50
2022-09-30T08:40:22.116Z,2.78
2022-09-30T08:42:42.468Z,2.65
2022-09-30T08:45:01.169Z,2.42
2022-09-30T08:47:18.108Z,2.70
2022-09-30T08:49:35.326Z,2.53
2022-09-30T08:51:52.625Z,2.50
2022-09-30T08:54:10.614Z,2.55
2022-09-30T08:56:27.658Z,2.38
2022-09-30T08:58:45.049Z,2.45
2022-09-30T09:01:02.035Z,2.33
2022-09-30T09:03:19.512Z,2.33
2022-09-30T09:05:37.892Z,2.25
2022-09-30T09:07:55.158Z,2.58
2022-09-30T09:10:13.187Z,2.70
2022-09-30T09:12:31.221Z,2.53
2022-09-30T09:14:48.123Z,2.60
2022-09-30T09:17:10.692Z,2.42
2022-09-30T09:19:30.336Z,2.88
2022-09-30T09:21:47.600Z,2.80
2022-09-30T09:24:04.817Z,2.70
2022-09-30T09:26:21.745Z,2.80
2022-09-30T09:28:38.732Z,2.92
2022-09-30T09:30:56.377Z,2.80
2022-09-30T09:33:14.365Z,2.40
2022-09-30T09:35:31.686Z,2.45
2022-09-30T09:37:48.632Z,2.40
2022-09-30T09:40:05.796Z,2.40
2022-09-30T09:42:23.473Z,2.33
2022-09-30T09:44:40.769Z,2.30
2022-09-30T09:46:57.796Z,1.88
2022-09-30T09:49:14.804Z,2.13
2022-09-30T09:51:31.757Z,1.70
2022-09-30T09:53:48.905Z,2.00
2022-09-30T09:56:05.940Z,1.95
2022-09-30T09:58:22.953Z,1.90
2022-09-30T10:00:40.248Z,1.95
2022-09-30T10:02:57.388Z,1.95
2022-09-30T10:05:14.353Z,1.92
2022-09-30T10:07:32.153Z,1.50
2022-09-30T10:09:50.148Z,1.40
2022-09-30T10:12:07.209Z,1.50
2022-09-30T10:14:24.337Z,1.35
2022-09-30T10:16:44.231Z,1.33
2022-09-30T10:19:03.922Z,1.70
2022-09-30T10:21:23.009Z,1.38
2022-09-30T10:23:40.299Z,1.38
2022-09-30T10:25:57.528Z,1.65
2022-09-30T10:28:14.810Z,1.40
2022-09-30T10:30:32.817Z,1.40
2022-09-30T10:32:50.183Z,1.20
2022-09-30T10:35:07.466Z,1.10
2022-09-30T10:37:24.460Z,1.30
2022-09-30T10:39:42.511Z,1.20
2022-09-30T10:41:59.729Z,1.13
2022-09-30T10:44:16.716Z,1.15
2022-09-30T10:46:34.253Z,1.10
2022-09-30T10:48:51.249Z,1.23
2022-09-30T10:51:08.600Z,1.10
2022-09-30T10:53:27.005Z,1.20
2022-09-30T10:55:43.983Z,1.10
2022-09-30T10:58:01.256Z,1.10
2022-09-30T11:00:18.465Z,1.30
2022-09-30T11:02:35.452Z,1.50
2022-09-30T11:04:52.699Z,1.10
2022-09-30T11:07:09.912Z,1.20
2022-09-30T11:09:27.191Z,1.20
2022-09-30T11:11:47.227Z,1.10
2022-09-30T11:14:04.209Z,1.27
2022-09-30T11:16:21.339Z,1.20
2022-09-30T11:18:38.648Z,1.50
2022-09-30T11:20:55.862Z,1.55
2022-09-30T11:23:13.141Z,1.30
2022-09-30T11:25:31.419Z,1.40
2022-09-30T11:27:48.450Z,1.50
2022-09-30T11:30:05.479Z,1.20
2022-09-30T11:32:22.461Z,1.58
2022-09-30T11:34:40.426Z,1.55
2022-09-30T11:36:57.681Z,1.40
2022-09-30T11:39:14.616Z,1.40
2022-09-30T11:41:31.676Z,1.35
2022-09-30T11:43:48.890Z,1.25
2022-09-30T11:46:07.186Z,1.33
2022-09-30T11:48:24.174Z,1.40
2022-09-30T11:50:41.210Z,1.40
2022-09-30T11:52:58.435Z,1.33
2022-09-30T11:55:15.769Z,1.40
2022-09-30T11:57:32.804Z,1.35
2022-09-30T11:59:49.789Z,1.20
2022-09-30T12:02:07.089Z,1.10
2022-09-30T12:04:24.010Z,1.20
2022-09-30T12:06:40.982Z,1.30
2022-09-30T12:08:57.982Z,1.13
2022-09-30T12:11:15.278Z,1.15
2022-09-30T12:13:32.249Z,1.20
2022-09-30T12:15:49.293Z,1.00
2022-09-30T12:18:06.579Z,1.15
2022-09-30T12:20:23.940Z,1.30
2022-09-30T12:22:41.187Z,1.20
2022-09-30T12:24:58.526Z,1.08
2022-09-30T12:27:16.761Z,1.10
2022-09-30T12:29:33.913Z,1.38
2022-09-30T12:31:51.154Z,1.40
2022-09-30T12:34:08.464Z,1.05
2022-09-30T12:36:26.185Z,1.30
2022-09-30T12:38:43.268Z,1.20
2022-09-30T12:41:00.295Z,1.27
2022-09-30T12:43:17.242Z,1.30
2022-09-30T12:45:34.482Z,1.20
2022-09-30T12:47:51.690Z,1.20
2022-09-30T12:50:08.713Z,1.40
2022-09-30T12:52:25.957Z,1.20
2022-09-30T12:54:42.886Z,1.38
2022-09-30T12:56:59.856Z,1.17
2022-09-30T12:59:17.174Z,1.20
2022-09-30T13:01:34.467Z,1.27
2022-09-30T13:03:52.169Z,1.40
2022-09-30T13:06:09.390Z,1.30
2022-09-30T13:08:26.636Z,1.30
2022-09-30T13:10:44.000Z,1.20
2022-09-30T13:13:00.935Z,1.20
2022-09-30T13:15:17.935Z,1.25
2022-09-30T13:17:35.253Z,1.25
2022-09-30T13:19:53.295Z,1.27
2022-09-30T13:22:10.534Z,1.45
2022-09-30T13:24:27.543Z,1.10
2022-09-30T13:26:44.500Z,1.42
2022-09-30T13:29:01.568Z,0.95
2022-09-30T13:31:19.874Z,1.30
2022-09-30T13:33:37.182Z,1.48
2022-09-30T13:35:54.227Z,1.10
2022-09-30T13:38:12.456Z,1.33
2022-09-30T13:40:57.104Z,1.17
2022-09-30T13:43:06.548Z,1.13
2022-09-30T13:45:23.843Z,1.20
2022-09-30T13:47:41.134Z,1.27
2022-09-30T13:49:59.362Z,1.17
2022-09-30T13:52:16.749Z,1.00
2022-09-30T13:54:34.141Z,1.00
2022-09-30T13:56:51.004Z,1.10
2022-09-30T13:59:08.295Z,1.20
2022-09-30T14:01:25.301Z,1.20
2022-09-30T14:03:42.572Z,1.15
2022-09-30T14:05:59.913Z,1.05
2022-09-30T14:08:16.936Z,1.10
2022-09-30T14:10:33.935Z,1.23
2022-09-30T14:12:52.256Z,1.20
2022-09-30T14:15:10.281Z,1.15
2022-09-30T14:17:27.526Z,1.20
2022-09-30T14:19:45.822Z,1.00
2022-09-30T14:22:02.890Z,1.00
2022-09-30T14:24:20.239Z,1.30
2022-09-30T14:26:38.428Z,1.50
2022-09-30T14:28:56.295Z,1.40
2022-09-30T14:31:14.403Z,1.20
2022-09-30T14:33:31.434Z,1.30
2022-09-30T14:35:48.871Z,1.25
2022-09-30T14:38:06.175Z,1.15
2022-09-30T14:40:23.187Z,1.10
2022-09-30T14:42:40.410Z,1.17
2022-09-30T14:44:57.696Z,0.98
2022-09-30T14:47:14.640Z,1.30
2022-09-30T14:49:34.056Z,1.00
2022-09-30T14:51:54.140Z,1.10
2022-09-30T14:54:12.176Z,1.50
2022-09-30T14:56:29.684Z,1.00
2022-09-30T14:58:47.222Z,1.30
2022-09-30T15:01:04.351Z,1.10
2022-09-30T15:03:23.783Z,1.10
2022-09-30T15:05:40.779Z,1.40
2022-09-30T15:07:58.157Z,1.13
2022-09-30T15:10:15.398Z,1.15
2022-09-30T15:12:32.705Z,1.10
2022-09-30T15:14:49.787Z,0.98
2022-09-30T15:17:06.848Z,1.15
2022-09-30T15:19:24.150Z,1.15
2022-09-30T15:21:41.523Z,1.25
2022-09-30T15:23:58.752Z,1.10
2022-09-30T15:26:15.977Z,0.80
2022-09-30T15:28:34.016Z,1.00
2022-09-30T15:30:52.248Z,1.00
2022-09-30T15:33:09.257Z,0.95
2022-09-30T15:35:28.701Z,0.93
2022-09-30T15:37:46.019Z,1.55
2022-09-30T15:40:04.897Z,1.40
2022-09-30T15:42:21.987Z,1.58
2022-09-30T15:44:40.266Z,1.77
2022-09-30T15:46:57.550Z,2.05
2022-09-30T15:49:14.505Z,1.60
2022-09-30T15:51:31.682Z,1.65
2022-09-30T15:53:48.979Z,2.28
2022-09-30T15:56:06.017Z,4.00
2022-09-30T15:58:23.065Z,1.83
2022-09-30T16:00:40.373Z,3.45
2022-09-30T16:02:57.887Z,3.70
2022-09-30T16:05:14.860Z,4.57
2022-09-30T16:07:32.079Z,2.88
2022-09-30T16:09:49.371Z,2.90
2022-09-30T16:12:06.824Z,3.88
2022-09-30T16:14:24.105Z,2.78
2022-09-30T16:16:41.582Z,11.02
2022-09-30T16:18:58.978Z,13.20
2022-09-30T16:21:19.350Z,11.32
2022-09-30T16:23:36.601Z,6.60
2022-09-30T16:25:53.867Z,6.68
2022-09-30T16:28:11.964Z,6.32
2022-09-30T16:30:30.612Z,6.32
2022-09-30T16:32:47.841Z,10.57
2022-09-30T16:35:06.372Z,6.65
2022-09-30T16:37:23.270Z,6.35
2022-09-30T16:39:40.486Z,5.57
2022-09-30T16:41:57.657Z,5.80
2022-09-30T16:44:15.931Z,6.15
2022-09-30T16:46:33.253Z,6.05
2022-09-30T16:48:53.408Z,4.82
2022-09-30T16:51:11.382Z,3.97
2022-09-30T16:53:28.541Z,4.68
2022-09-30T16:55:45.599Z,5.47
2022-09-30T16:58:02.631Z,4.53
2022-09-30T17:00:20.643Z,4.22
2022-09-30T17:02:38.900Z,3.95
2022-09-30T17:04:56.948Z,3.83
2022-09-30T17:07:14.889Z,4.68
2022-09-30T17:09:34.414Z,6.47
2022-09-30T17:11:51.657Z,5.47
2022-09-30T17:14:08.686Z,3.92
2022-09-30T17:16:26.002Z,2.85
2022-09-30T17:18:42.986Z,2.80
2022-09-30T17:21:00.981Z,2.83
2022-09-30T17:23:17.960Z,2.80
2022-09-30T17:25:35.206Z,2.70
2022-09-30T17:27:52.169Z,2.30
2022-09-30T17:30:09.239Z,2.42
2022-09-30T17:32:26.274Z,2.70
2022-09-30T17:34:43.287Z,3.15
2022-09-30T17:37:00.378Z,5.25
2022-09-30T17:39:17.405Z,5.57
2022-09-30T17:41:35.109Z,4.97
2022-09-30T17:43:52.369Z,5.05
2022-09-30T17:46:09.754Z,4.70
2022-09-30T17:48:28.256Z,4.72
2022-09-30T17:50:45.487Z,4.72
2022-09-30T17:53:02.750Z,5.40
2022-09-30T17:55:20.792Z,5.00
2022-09-30T17:57:37.818Z,5.13
2022-09-30T17:59:54.757Z,3.33
2022-09-30T18:02:12.851Z,2.90
2022-09-30T18:04:30.782Z,3.45
2022-09-30T18:06:48.066Z,3.28
2022-09-30T18:09:05.327Z,3.60
2022-09-30T18:11:22.409Z,3.17
2022-09-30T18:13:39.655Z,2.95
2022-09-30T18:15:56.601Z,2.83
2022-09-30T18:18:13.966Z,3.63
2022-09-30T18:20:30.992Z,4.03
2022-09-30T18:22:48.014Z,3.60
2022-09-30T18:25:05.011Z,3.70
2022-09-30T18:27:22.006Z,3.55
2022-09-30T18:29:38.960Z,3.20
2022-09-30T18:31:56.012Z,3.05
2022-09-30T18:34:13.100Z,3.22
2022-09-30T18:36:30.324Z,2.92
2022-09-30T18:38:47.414Z,2.88
2022-09-30T18:41:04.397Z,3.35
2022-09-30T18:43:21.354Z,3.05
2022-09-30T18:45:38.439Z,3.28
2022-09-30T18:47:55.739Z,3.08
2022-09-30T18:50:12.758Z,3.08
2022-09-30T18:52:29.891Z,3.30
2022-09-30T18:54:47.126Z,2.72
2022-09-30T18:57:04.086Z,2.80
2022-09-30T18:59:23.855Z,3.13
2022-09-30T19:01:41.370Z,2.90
2022-09-30T19:03:59.682Z,3.00
2022-09-30T19:06:16.974Z,3.00
2022-09-30T19:08:33.956Z,4.30
2022-09-30T19:10:50.995Z,6.68
2022-09-30T19:13:07.979Z,8.30
2022-09-30T19:15:25.965Z,10.63
2022-09-30T19:17:43.011Z,8.43
2022-09-30T19:19:59.986Z,8.93
2022-09-30T19:22:17.601Z,7.22
2022-09-30T19:24:34.552Z,5.95
2022-09-30T19:26:51.861Z,4.65
2022-09-30T19:29:08.909Z,4.32
2022-09-30T19:31:25.941Z,4.30
2022-09-30T19:33:52.296Z,3.80
2022-09-30T19:36:15.069Z,4.55
2022-09-30T19:38:37.476Z,4.35
2022-09-30T19:40:56.175Z,3.92
2022-09-30T19:43:13.156Z,4.70
2022-09-30T19:45:30.504Z,5.90
2022-09-30T19:47:48.229Z,5.00
2022-09-30T19:50:05.269Z,4.30
2022-09-30T19:52:22.475Z,3.75
2022-09-30T19:54:41.891Z,3.60
2022-09-30T19:57:00.704Z,3.80
2022-09-30T19:59:18.770Z,3.47
2022-09-30T20:01:36.765Z,3.90
2022-09-30T20:03:53.976Z,3.92
2022-09-30T20:06:11.004Z,4.07
2022-09-30T20:08:28.352Z,4.20
2022-09-30T20:10:45.336Z,3.83
2022-09-30T20:13:02.302Z,4.18
2022-09-30T20:15:19.245Z,4.05
2022-09-30T20:17:36.241Z,3.70
2022-09-30T20:19:53.478Z,4.28
2022-09-30T20:22:10.664Z,4.10
2022-09-30T20:24:27.548Z,4.22
2022-09-30T20:26:44.796Z,4.50
2022-09-30T20:29:01.818Z,4.78
2022-09-30T20:31:18.795Z,4.93
2022-09-30T20:33:36.797Z,4.90
2022-09-30T20:35:54.248Z,4.68
2022-09-30T20:38:11.267Z,5.00
2022-09-30T20:40:29.495Z,5.35
2022-09-30T20:42:46.564Z,5.40
2022-09-30T20:45:03.579Z,5.35
2022-09-30T20:47:21.652Z,6.20
2022-09-30T20:49:38.640Z,6.40
2022-09-30T20:51:55.674Z,7.82
2022-09-30T20:54:12.618Z,11.45
2022-09-30T20:56:44.069Z,12.30
2022-09-30T20:59:07.700Z,11.45
2022-09-30T21:01:25.001Z,10.50
2022-09-30T21:03:41.939Z,9.50
2022-09-30T21:05:58.805Z,8.80
2022-09-30T21:08:15.740Z,9.23
2022-09-30T21:10:32.787Z,7.63
2022-09-30T21:12:49.774Z,6.82
2022-09-30T21:15:07.047Z,5.38
2022-09-30T21:17:24.317Z,5.75
2022-09-30T21:19:41.346Z,5.70
2022-09-30T21:21:59.552Z,5.93
2022-09-30T21:24:16.594Z,5.25
2022-09-30T21:26:33.578Z,4.60
2022-09-30T21:28:50.829Z,5.05
2022-09-30T21:31:07.894Z,5.93
2022-09-30T21:33:24.870Z,5.40
2022-09-30T21:35:41.775Z,4.55
2022-09-30T21:37:58.833Z,4.70
2022-09-30T21:40:16.239Z,4.15
2022-09-30T21:42:33.446Z,4.00
2022-09-30T21:44:51.790Z,4.43
2022-09-30T21:47:09.749Z,4.60
2022-09-30T21:49:26.725Z,5.40
2022-09-30T21:51:44.021Z,5.07
2022-09-30T21:54:01.007Z,4.70
2022-09-30T21:56:18.034Z,4.55
2022-09-30T21:58:35.072Z,4.05
2022-09-30T22:00:52.355Z,4.03
2022-09-30T22:03:09.322Z,3.80
2022-09-30T22:05:26.469Z,3.58
2022-09-30T22:07:43.632Z,3.80
2022-09-30T22:10:00.539Z,3.50
2022-09-30T22:12:17.482Z,4.07
2022-09-30T22:14:34.457Z,3.83
2022-09-30T22:16:51.432Z,4.18
2022-09-30T22:19:09.791Z,3.75
2022-09-30T22:21:27.122Z,4.03
2022-09-30T22:23:44.361Z,4.70
2022-09-30T22:26:02.321Z,4.88
2022-09-30T22:28:19.583Z,4.82
2022-09-30T22:30:36.983Z,5.07
2022-09-30T22:32:53.995Z,8.20
2022-09-30T22:35:10.987Z,10.60
2022-09-30T22:37:28.357Z,9.45
2022-09-30T22:39:46.303Z,8.60
2022-09-30T22:42:05.473Z,6.25
2022-09-30T22:44:22.862Z,5.43
2022-09-30T22:46:39.886Z,5.70
2022-09-30T22:48:57.117Z,7.28
2022-09-30T22:51:14.135Z,7.90
2022-09-30T22:53:31.435Z,9.13
2022-09-30T22:55:48.787Z,8.38
2022-09-30T22:58:05.779Z,9.02
2022-09-30T23:00:23.869Z,8.40
2022-09-30T23:02:40.827Z,8.60
2022-09-30T23:05:02.669Z,10.32
2022-09-30T23:07:19.940Z,11.90
2022-09-30T23:09:36.799Z,13.77
2022-09-30T23:11:53.748Z,12.80
2022-09-30T23:14:11.722Z,11.43
2022-09-30T23:16:29.523Z,11.57
2022-09-30T23:18:47.639Z,11.07
2022-09-30T23:21:06.540Z,11.98
2022-09-30T23:23:23.608Z,10.32
2022-09-30T23:25:40.744Z,11.07
2022-09-30T23:27:58.782Z,9.88
2022-09-30T23:30:15.865Z,9.05
2022-09-30T23:32:33.127Z,8.77
2022-09-30T23:34:50.015Z,8.05
2022-09-30T23:37:07.339Z,7.50
2022-09-30T23:39:25.554Z,6.90
2022-09-30T23:41:42.493Z,6.47
2022-09-30T23:43:59.372Z,7.90
2022-09-30T23:46:16.780Z,7.72
2022-09-30T23:48:35.346Z,8.25
2022-09-30T23:50:52.251Z,7.70
2022-09-30T23:53:09.225Z,7.53
2022-09-30T23:55:26.609Z,7.32
2022-09-30T23:57:43.855Z,7.05
